Time;durP1;ratioP1;P1;durP2;ratioP2;P2;SDS_P1;SDS_P2;PMS_P1;PMS_P2;Temp;Humidity;BMP_temperature;BMP_pressure;BME280_temperature;BME280_humidity;BME280_pressure;Samples;Min_cycle;Max_cycle;Signal;HPM_P1;HPM_P2
2021/12/01 00:01:59;;;;;;;1.63;1.53;;;5.80;99.90;;;;;;5076095;28;20539;-56
2021/12/01 00:04:26;;;;;;;1.90;1.80;;;5.80;99.90;;;;;;5076104;28;20931;-56
2021/12/01 00:06:53;;;;;;;1.70;1.60;;;6.00;99.90;;;;;;5076360;28;20448;-57
2021/12/01 00:09:21;;;;;;;1.80;1.70;;;6.00;99.90;;;;;;5076225;28;20815;-56
2021/12/01 00:11:48;;;;;;;1.83;1.73;;;6.00;99.90;;;;;;5076314;28;20633;-57
2021/12/01 00:14:15;;;;;;;1.60;1.50;;;5.80;99.90;;;;;;5075761;28;21008;-56
2021/12/01 00:16:44;;;;;;;1.50;1.40;;;5.80;99.90;;;;;;5075920;28;20524;-56
2021/12/01 00:19:11;;;;;;;2.30;1.60;;;5.80;99.90;;;;;;5076150;28;20451;-56
2021/12/01 00:21:38;;;;;;;2.13;1.67;;;6.00;99.90;;;;;;5075790;28;20448;-56
2021/12/01 00:24:06;;;;;;;1.70;1.60;;;5.90;99.90;;;;;;5075787;28;20949;-56
2021/12/01 00:26:33;;;;;;;1.57;1.47;;;5.80;99.90;;;;;;5076046;28;20450;-55
2021/12/01 00:29:00;;;;;;;1.60;1.50;;;5.90;99.90;;;;;;5075890;28;20448;-56
2021/12/01 00:31:27;;;;;;;2.00;1.73;;;5.90;99.90;;;;;;5075944;28;20806;-56
2021/12/01 00:33:57;;;;;;;1.70;1.60;;;5.80;99.90;;;;;;5075517;28;21024;-57
2021/12/01 00:36:24;;;;;;;1.73;1.63;;;5.80;99.90;;;;;;5075270;28;20558;-57
2021/12/01 00:38:51;;;;;;;1.83;1.73;;;5.80;99.90;;;;;;5075501;28;20931;-56
2021/12/01 00:41:21;;;;;;;1.67;1.57;;;5.70;99.90;;;;;;5075104;28;21043;-57
2021/12/01 00:43:48;;;;;;;1.93;1.63;;;5.70;99.90;;;;;;5075409;28;20810;-57
2021/12/01 00:46:20;;;;;;;2.17;2.07;;;5.70;99.90;;;;;;5075783;28;20915;-56
2021/12/01 00:48:48;;;;;;;1.50;1.40;;;5.70;99.90;;;;;;5075615;28;20490;-56
2021/12/01 00:51:17;;;;;;;1.80;1.70;;;5.80;99.90;;;;;;5075359;28;20473;-55
2021/12/01 00:53:44;;;;;;;1.50;1.40;;;5.80;99.90;;;;;;5075453;28;20483;-56
2021/12/01 00:56:12;;;;;;;1.50;1.40;;;5.90;99.90;;;;;;5075436;28;20444;-56
2021/12/01 00:58:39;;;;;;;2.67;1.87;;;5.90;99.90;;;;;;5075399;28;20444;-55
2021/12/01 01:01:06;;;;;;;1.60;1.50;;;5.80;99.90;;;;;;5075240;28;20472;-55
2021/12/01 01:03:33;;;;;;;1.60;1.50;;;5.80;99.90;;;;;;5075267;28;20445;-55
2021/12/01 01:06:00;;;;;;;1.90;1.60;;;5.70;99.90;;;;;;5075202;28;20444;-55
2021/12/01 01:08:29;;;;;;;2.57;1.57;;;5.80;99.90;;;;;;5075193;28;20456;-55
2021/12/01 01:16:34;;;;;;;1.50;1.40;;;5.90;99.90;;;;;;5075103;28;20404;-55
2021/12/01 01:19:04;;;;;;;1.87;1.50;;;5.80;99.90;;;;;;5074890;28;20448;-55
2021/12/01 01:21:33;;;;;;;1.90;1.70;;;5.70;99.90;;;;;;5074581;28;20484;-55
2021/12/01 01:24:02;;;;;;;2.10;1.60;;;5.60;99.90;;;;;;5074519;28;20999;-55
2021/12/01 01:26:31;;;;;;;1.73;1.63;;;5.70;99.90;;;;;;5074498;28;20992;-55
2021/12/01 01:28:58;;;;;;;1.60;1.50;;;5.60;99.90;;;;;;5074435;28;20451;-55
2021/12/01 01:31:25;;;;;;;1.67;1.57;;;5.70;99.90;;;;;;5074690;28;20536;-55
2021/12/01 01:33:53;;;;;;;1.60;1.50;;;5.70;99.90;;;;;;5075099;28;20490;-55
2021/12/01 01:36:21;;;;;;;1.80;1.70;;;5.70;99.90;;;;;;5074331;28;20484;-55
2021/12/01 01:38:48;;;;;;;2.20;1.73;;;5.80;99.90;;;;;;5074553;28;20452;-55
2021/12/01 01:41:17;;;;;;;1.70;1.60;;;5.80;99.90;;;;;;5074150;28;20555;-55
2021/12/01 01:43:47;;;;;;;1.63;1.50;;;5.70;99.90;;;;;;5074174;28;20950;-55
2021/12/01 01:46:15;;;;;;;2.40;2.27;;;5.80;99.90;;;;;;5074543;28;20455;-55
2021/12/01 01:48:48;;;;;;;1.70;1.60;;;5.60;99.90;;;;;;5074056;28;20969;-55
2021/12/01 01:51:16;;;;;;;1.70;1.60;;;5.60;99.90;;;;;;5073664;28;20465;-55
2021/12/01 01:53:44;;;;;;;1.90;1.70;;;5.80;99.90;;;;;;5074256;28;20484;-55
2021/12/01 01:56:12;;;;;;;1.90;1.80;;;5.80;99.90;;;;;;5074276;28;20565;-55
2021/12/01 01:58:40;;;;;;;2.30;2.07;;;5.80;99.90;;;;;;5074191;28;20450;-55
2021/12/01 02:01:11;;;;;;;1.87;1.77;;;5.80;99.90;;;;;;5074154;28;20555;-55
2021/12/01 02:03:40;;;;;;;1.87;1.77;;;5.80;99.90;;;;;;5074202;28;20429;-55
2021/12/01 02:06:10;;;;;;;2.10;2.00;;;5.90;99.90;;;;;;5073806;28;20982;-55
2021/12/01 02:08:40;;;;;;;2.33;1.90;;;5.80;99.90;;;;;;5073807;28;20459;-55
2021/12/01 02:11:10;;;;;;;1.77;1.67;;;5.90;99.90;;;;;;5073839;28;20468;-55
2021/12/01 02:13:39;;;;;;;2.27;2.07;;;6.00;99.90;;;;;;5073574;28;20464;-55
2021/12/01 02:16:08;;;;;;;2.07;1.97;;;5.90;99.90;;;;;;5074048;28;20551;-55
2021/12/01 02:18:35;;;;;;;3.93;2.07;;;5.90;99.90;;;;;;5073832;28;20444;-55
2021/12/01 02:21:11;;;;;;;2.13;1.97;;;5.90;99.90;;;;;;5073727;28;20523;-55
2021/12/01 02:23:42;;;;;;;2.27;2.17;;;5.90;99.90;;;;;;5073532;28;20440;-54
2021/12/01 02:26:10;;;;;;;1.80;1.70;;;6.10;99.90;;;;;;5073869;28;20479;-55
2021/12/01 02:28:39;;;;;;;2.03;1.90;;;6.10;99.90;;;;;;5073808;28;20535;-55
2021/12/01 02:31:06;;;;;;;1.83;1.70;;;6.00;99.90;;;;;;5073691;28;20471;-55
2021/12/01 02:33:34;;;;;;;2.70;2.10;;;6.00;99.90;;;;;;5073322;28;20484;-55
2021/12/01 02:36:02;;;;;;;1.97;1.77;;;6.10;99.90;;;;;;5073513;28;20806;-55
2021/12/01 02:38:31;;;;;;;1.90;1.80;;;6.10;99.90;;;;;;5073789;28;20460;-55
2021/12/01 02:40:58;;;;;;;1.70;1.60;;;6.20;99.90;;;;;;5073624;28;20471;-55
2021/12/01 02:43:25;;;;;;;1.80;1.70;;;6.20;99.90;;;;;;5073373;28;20998;-55
2021/12/01 02:45:53;;;;;;;2.03;1.93;;;6.20;99.90;;;;;;5073945;28;20800;-55
2021/12/01 02:48:22;;;;;;;2.77;1.80;;;6.30;99.90;;;;;;5073573;28;20459;-55
2021/12/01 02:50:50;;;;;;;3.47;1.90;;;6.30;99.90;;;;;;5073204;28;20967;-55
2021/12/01 02:53:21;;;;;;;1.80;1.70;;;6.20;99.90;;;;;;5073518;28;20487;-55
2021/12/01 02:55:54;;;;;;;1.77;1.67;;;6.20;99.90;;;;;;5073275;28;20911;-55
2021/12/01 02:58:22;;;;;;;1.60;1.50;;;6.20;99.90;;;;;;5073589;28;20486;-55
2021/12/01 03:00:54;;;;;;;2.10;1.90;;;6.30;99.90;;;;;;5073156;28;20963;-55
2021/12/01 03:03:21;;;;;;;1.97;1.87;;;6.40;99.90;;;;;;5075282;28;20896;-55
2021/12/01 03:05:50;;;;;;;2.10;2.00;;;6.40;99.90;;;;;;5077138;28;20452;-56
2021/12/01 03:08:18;;;;;;;1.70;1.60;;;6.30;99.90;;;;;;5077412;28;20448;-55
2021/12/01 03:10:47;;;;;;;1.70;1.60;;;6.30;99.90;;;;;;5077045;28;20974;-55
2021/12/01 03:13:17;;;;;;;1.70;1.60;;;6.40;99.90;;;;;;5077295;28;20454;-56
2021/12/01 03:15:45;;;;;;;1.63;1.53;;;6.40;99.90;;;;;;5077412;28;20543;-56
2021/12/01 03:18:13;;;;;;;1.93;1.67;;;6.30;99.90;;;;;;5077208;28;20440;-55
2021/12/01 03:20:41;;;;;;;2.00;1.90;;;6.20;99.90;;;;;;5076796;28;20472;-55
2021/12/01 03:23:09;;;;;;;1.70;1.60;;;6.30;99.90;;;;;;5077043;28;20510;-55
2021/12/01 03:25:37;;;;;;;1.77;1.63;;;6.30;99.90;;;;;;5077015;28;20540;-55
2021/12/01 03:28:06;;;;;;;1.60;1.50;;;6.30;99.90;;;;;;5077028;28;20538;-55
2021/12/01 03:30:37;;;;;;;2.10;1.80;;;6.30;99.90;;;;;;5076879;28;20470;-55
2021/12/01 03:33:06;;;;;;;1.50;1.40;;;6.20;99.90;;;;;;5076629;28;20439;-55
2021/12/01 03:35:33;;;;;;;1.87;1.77;;;6.40;99.90;;;;;;5076886;28;20456;-55
2021/12/01 03:38:00;;;;;;;1.83;1.50;;;6.40;99.90;;;;;;5076349;28;21035;-55
2021/12/01 03:40:27;;;;;;;1.80;1.70;;;6.50;99.90;;;;;;5076430;28;20971;-55
2021/12/01 03:42:54;;;;;;;1.87;1.70;;;6.40;99.90;;;;;;5077208;28;20535;-55
2021/12/01 03:45:22;;;;;;;2.50;1.50;;;6.50;99.90;;;;;;5076554;28;20459;-55
2021/12/01 03:47:50;;;;;;;2.20;2.00;;;6.50;99.90;;;;;;5076326;28;20448;-56
2021/12/01 03:50:18;;;;;;;2.20;2.00;;;6.50;99.90;;;;;;5076550;28;20464;-55
2021/12/01 03:52:45;;;;;;;2.30;2.10;;;6.50;99.90;;;;;;5076598;28;20444;-55
2021/12/01 03:55:13;;;;;;;1.87;1.77;;;6.60;99.90;;;;;;5076487;28;20490;-55
2021/12/01 03:57:40;;;;;;;1.90;1.80;;;6.60;99.90;;;;;;5076251;28;20899;-55
2021/12/01 04:00:11;;;;;;;1.80;1.70;;;6.50;99.90;;;;;;5076363;28;20551;-55
2021/12/01 04:02:38;;;;;;;1.70;1.60;;;6.60;99.90;;;;;;5076462;28;20429;-55
2021/12/01 04:05:08;;;;;;;1.60;1.50;;;6.50;99.90;;;;;;5076032;28;20878;-55
2021/12/01 04:07:36;;;;;;;1.97;1.80;;;6.50;99.90;;;;;;5076005;28;20813;-56
2021/12/01 04:10:08;;;;;;;1.60;1.50;;;6.60;99.90;;;;;;5076201;28;20468;-55
2021/12/01 04:12:35;;;;;;;2.10;1.90;;;6.50;99.90;;;;;;5076328;28;20532;-55
2021/12/01 04:15:04;;;;;;;2.03;1.80;;;6.50;99.90;;;;;;5075207;28;21052;-55
2021/12/01 04:17:31;;;;;;;1.70;1.60;;;;;;;;;;5075734;28;20452;-55
2021/12/01 04:19:58;;;;;;;2.27;1.70;;;6.60;99.90;;;;;;5075727;28;20472;-55
2021/12/01 04:22:27;;;;;;;2.13;1.93;;;6.70;99.90;;;;;;5076061;28;20444;-55
2021/12/01 04:24:54;;;;;;;1.87;1.77;;;6.70;99.90;;;;;;5075987;28;20463;-55
2021/12/01 04:27:21;;;;;;;1.93;1.63;;;6.70;99.90;;;;;;5075935;28;20524;-55
2021/12/01 04:29:49;;;;;;;1.90;1.80;;;6.70;99.90;;;;;;5075903;28;20526;-55
2021/12/01 04:32:16;;;;;;;2.10;1.80;;;6.70;99.90;;;;;;5075590;28;20478;-55
2021/12/01 04:34:43;;;;;;;4.20;1.70;;;6.80;99.90;;;;;;5076283;28;20562;-55
2021/12/01 04:37:10;;;;;;;1.80;1.63;;;6.70;99.90;;;;;;5075341;28;20522;-55
2021/12/01 04:39:39;;;;;;;4.07;1.80;;;6.80;99.90;;;;;;5075825;28;20479;-55
2021/12/01 04:42:07;;;;;;;1.97;1.87;;;6.70;99.90;;;;;;5075686;28;20444;-55
2021/12/01 04:44:36;;;;;;;2.07;1.90;;;6.80;99.90;;;;;;5075624;28;20479;-55
2021/12/01 04:47:09;;;;;;;2.27;1.87;;;6.90;99.90;;;;;;5075594;28;20429;-55
2021/12/01 04:49:37;;;;;;;1.67;1.57;;;6.90;99.90;;;;;;5075179;28;20468;-55
2021/12/01 04:52:06;;;;;;;1.80;1.70;;;6.80;99.90;;;;;;5075465;28;20455;-55
2021/12/01 04:54:34;;;;;;;2.00;1.90;;;6.70;99.90;;;;;;5075416;28;20982;-55
2021/12/01 04:57:05;;;;;;;2.03;1.87;;;6.80;99.90;;;;;;5075056;28;20445;-55
2021/12/01 04:59:33;;;;;;;4.23;2.00;;;6.90;99.90;;;;;;5074938;28;20491;-55
2021/12/01 05:02:01;;;;;;;2.20;1.70;;;6.80;99.90;;;;;;5074949;28;20447;-55
2021/12/01 05:04:28;;;;;;;2.33;2.13;;;6.80;99.90;;;;;;5075287;28;20456;-55
2021/12/01 05:06:55;;;;;;;2.27;1.90;;;6.80;99.90;;;;;;5075123;28;20543;-55
2021/12/01 05:09:22;;;;;;;2.20;1.83;;;6.80;99.90;;;;;;5074735;28;20468;-55
2021/12/01 05:11:50;;;;;;;1.70;1.60;;;6.80;99.90;;;;;;5075551;28;20871;-55
2021/12/01 05:14:18;;;;;;;2.33;2.10;;;6.80;99.90;;;;;;5074489;28;20559;-55
2021/12/01 05:16:46;;;;;;;1.80;1.70;;;6.90;99.90;;;;;;5074686;28;20428;-55
2021/12/01 05:19:13;;;;;;;3.30;2.00;;;6.90;99.90;;;;;;5074641;28;20539;-55
2021/12/01 05:21:41;;;;;;;2.20;2.00;;;6.90;99.90;;;;;;5074804;28;20448;-55
2021/12/01 05:24:09;;;;;;;1.60;1.50;;;7.10;99.90;;;;;;5074760;28;20527;-55
2021/12/01 05:26:36;;;;;;;1.93;1.83;;;7.10;99.90;;;;;;5073556;28;20439;-55
2021/12/01 05:29:04;;;;;;;2.30;1.73;;;7.00;99.90;;;;;;5074662;28;20523;-55
2021/12/01 05:31:33;;;;;;;2.10;1.90;;;7.10;99.90;;;;;;5074276;28;20444;-55
2021/12/01 05:34:00;;;;;;;1.60;1.40;;;7.00;99.90;;;;;;5074194;28;20506;-55
2021/12/01 05:36:27;;;;;;;1.57;1.47;;;6.90;99.90;;;;;;5074172;28;20483;-55
2021/12/01 05:38:55;;;;;;;3.40;1.50;;;7.00;99.90;;;;;;5074566;28;20429;-55
2021/12/01 05:41:22;;;;;;;1.70;1.50;;;7.00;99.90;;;;;;5074268;28;20464;-55
2021/12/01 05:43:50;;;;;;;1.53;1.43;;;7.10;99.90;;;;;;5074119;28;20993;-55
2021/12/01 05:46:17;;;;;;;1.50;1.40;;;7.10;99.90;;;;;;5074584;28;20555;-55
2021/12/01 05:48:46;;;;;;;1.83;1.37;;;7.10;99.90;;;;;;5074289;28;20458;-55
2021/12/01 05:51:13;;;;;;;1.50;1.40;;;7.10;99.90;;;;;;5073927;28;20468;-55
2021/12/01 05:53:40;;;;;;;1.50;1.40;;;7.10;99.90;;;;;;5074309;28;20480;-56
2021/12/01 05:56:07;;;;;;;1.90;1.60;;;7.10;99.90;;;;;;5074142;28;20903;-55
2021/12/01 05:58:34;;;;;;;1.67;1.47;;;7.10;99.90;;;;;;5073971;28;20539;-56
2021/12/01 06:01:02;;;;;;;1.33;1.23;;;7.10;99.90;;;;;;5073979;28;20473;-55
2021/12/01 06:03:29;;;;;;;1.80;1.70;;;7.20;99.90;;;;;;5073856;28;20539;-55
2021/12/01 06:05:58;;;;;;;1.53;1.43;;;7.20;99.90;;;;;;5073993;28;20456;-55
2021/12/01 06:08:25;;;;;;;1.87;1.40;;;7.30;99.90;;;;;;5073947;28;20448;-56
2021/12/01 06:10:53;;;;;;;2.50;1.47;;;7.30;99.90;;;;;;5073449;28;20471;-55
2021/12/01 06:13:21;;;;;;;1.80;1.67;;;7.30;99.90;;;;;;5073936;28;20849;-55
2021/12/01 06:15:50;;;;;;;1.63;1.53;;;7.50;99.90;;;;;;5073902;28;20895;-56
2021/12/01 06:18:17;;;;;;;1.90;1.70;;;7.50;99.90;;;;;;5073702;28;20506;-55
2021/12/01 06:20:45;;;;;;;1.80;1.70;;;7.40;99.90;;;;;;5073404;28;20474;-56
2021/12/01 06:23:14;;;;;;;2.33;1.63;;;7.50;99.90;;;;;;5073729;28;20815;-55
2021/12/01 06:25:41;;;;;;;1.80;1.63;;;7.40;99.90;;;;;;5073627;28;20531;-55
2021/12/01 06:28:08;;;;;;;1.87;1.60;;;7.50;99.90;;;;;;5073676;28;20452;-55
2021/12/01 06:30:38;;;;;;;1.50;1.40;;;7.50;99.90;;;;;;5073471;28;20487;-55
2021/12/01 06:33:08;;;;;;;1.40;1.30;;;7.50;99.90;;;;;;5073435;28;20880;-55
2021/12/01 06:35:44;;;;;;;1.77;1.30;;;7.50;99.90;;;;;;5073536;28;20562;-54
2021/12/01 06:38:13;;;;;;;2.27;1.50;;;7.50;99.90;;;;;;5072692;28;20488;-54
2021/12/01 06:40:41;;;;;;;1.50;1.40;;;7.50;99.90;;;;;;5073452;28;20556;-54
2021/12/01 06:43:08;;;;;;;1.50;1.40;;;7.50;99.90;;;;;;5073050;28;20444;-57
2021/12/01 06:45:36;;;;;;;1.33;1.23;;;7.60;99.90;;;;;;5073431;28;20488;-55
2021/12/01 06:48:03;;;;;;;2.57;1.73;;;7.70;99.90;;;;;;5073292;28;20452;-55
2021/12/01 06:50:30;;;;;;;2.50;1.40;;;7.70;99.90;;;;;;5073095;28;20465;-55
2021/12/01 06:52:57;;;;;;;1.30;1.20;;;7.60;99.90;;;;;;5073305;28;20527;-55
2021/12/01 06:55:26;;;;;;;1.33;1.23;;;7.50;99.90;;;;;;5072721;28;20571;-55
2021/12/01 06:57:53;;;;;;;1.57;1.30;;;7.60;99.90;;;;;;5073085;28;20482;-55
2021/12/01 07:00:21;;;;;;;2.60;1.40;;;7.60;99.90;;;;;;5073063;28;20490;-55
2021/12/01 07:02:49;;;;;;;2.17;1.70;;;7.70;99.90;;;;;;5073354;28;20454;-55
2021/12/01 07:05:16;;;;;;;1.50;1.40;;;7.70;99.90;;;;;;5073275;28;20859;-56
2021/12/01 07:07:43;;;;;;;2.07;1.67;;;7.70;99.90;;;;;;5073310;28;20455;-56
2021/12/01 07:10:13;;;;;;;2.00;1.47;;;7.80;99.90;;;;;;5072833;28;20464;-56
2021/12/01 07:12:42;;;;;;;2.40;1.53;;;7.80;99.90;;;;;;5072905;28;20444;-56
2021/12/01 07:15:11;;;;;;;1.53;1.43;;;7.80;99.90;;;;;;5073131;28;20483;-56
2021/12/01 07:17:39;;;;;;;2.70;1.40;;;7.90;99.90;;;;;;5072808;28;20535;-56
2021/12/01 07:20:08;;;;;;;2.27;1.70;;;7.90;99.90;;;;;;5072699;28;20445;-56
2021/12/01 07:22:36;;;;;;;3.00;1.70;;;7.80;99.90;;;;;;5073014;28;20478;-56
2021/12/01 07:25:03;;;;;;;2.00;1.80;;;7.80;99.90;;;;;;5072718;28;20445;-55
2021/12/01 07:27:31;;;;;;;1.83;1.60;;;7.80;99.90;;;;;;5072958;28;20590;-56
2021/12/01 07:29:59;;;;;;;1.50;1.40;;;7.80;99.90;;;;;;5072551;28;20473;-55
2021/12/01 07:32:27;;;;;;;1.77;1.63;;;7.80;99.90;;;;;;5072800;28;20424;-56
2021/12/01 07:34:56;;;;;;;1.73;1.60;;;7.80;99.90;;;;;;5072388;28;20571;-56
2021/12/01 07:37:23;;;;;;;1.40;1.30;;;7.80;99.90;;;;;;5073040;28;20529;-56
2021/12/01 07:39:51;;;;;;;1.40;1.30;;;7.80;99.90;;;;;;5072902;28;20468;-56
2021/12/01 07:42:18;;;;;;;2.40;1.40;;;7.90;99.90;;;;;;5072947;28;20926;-55
2021/12/01 07:44:46;;;;;;;1.30;1.20;;;7.80;99.90;;;;;;5072795;28;20482;-55
2021/12/01 07:47:14;;;;;;;1.87;1.37;;;7.90;99.90;;;;;;5072677;28;20471;-55
2021/12/01 07:49:42;;;;;;;1.37;1.27;;;8.00;99.90;;;;;;5073611;28;20452;-54
2021/12/01 07:52:10;;;;;;;1.40;1.20;;;8.10;99.90;;;;;;5076090;28;20452;-57
2021/12/01 07:54:39;;;;;;;1.70;1.60;;;;;;;;;;5076261;28;20441;-54
2021/12/01 07:57:07;;;;;;;1.40;1.30;;;8.10;99.90;;;;;;5075779;28;20444;-54
2021/12/01 07:59:34;;;;;;;1.60;1.50;;;8.10;99.90;;;;;;5076068;28;20463;-54
2021/12/01 08:02:01;;;;;;;1.60;1.13;;;8.10;99.90;;;;;;5076462;28;20544;-54
2021/12/01 08:04:30;;;;;;;1.53;1.43;;;8.10;99.90;;;;;;5075517;28;20455;-54
2021/12/01 08:06:57;;;;;;;1.80;1.23;;;8.10;99.90;;;;;;5075388;28;20480;-54
2021/12/01 08:09:25;;;;;;;1.93;1.50;;;8.10;99.90;;;;;;5076046;28;20473;-54
2021/12/01 08:11:53;;;;;;;1.90;1.70;;;8.10;99.90;;;;;;5075564;28;20462;-54
2021/12/01 08:14:20;;;;;;;2.50;1.60;;;8.20;99.90;;;;;;5075423;28;20535;-54
2021/12/01 08:16:48;;;;;;;2.23;1.73;;;8.10;99.90;;;;;;5076175;28;20551;-54
2021/12/01 08:19:16;;;;;;;1.20;1.10;;;8.20;99.90;;;;;;5075914;28;20471;-54
2021/12/01 08:21:48;;;;;;;1.40;1.30;;;8.20;99.90;;;;;;5075873;28;20454;-54
2021/12/01 08:24:15;;;;;;;4.17;1.53;;;8.20;99.90;;;;;;5075344;28;20799;-54
2021/12/01 08:26:43;;;;;;;2.33;1.30;;;8.20;99.90;;;;;;5075690;28;20480;-54
2021/12/01 08:29:11;;;;;;;1.63;1.30;;;8.30;99.90;;;;;;5075455;28;20440;-56
2021/12/01 08:31:39;;;;;;;1.50;1.40;;;8.30;99.90;;;;;;5075234;28;20539;-57
2021/12/01 08:34:06;;;;;;;1.53;1.40;;;8.40;99.90;;;;;;5075716;28;20444;-57
2021/12/01 08:36:33;;;;;;;1.83;1.57;;;8.50;99.90;;;;;;5074833;28;20579;-56
2021/12/01 08:39:03;;;;;;;1.83;1.50;;;8.50;99.90;;;;;;5075340;28;20523;-57
2021/12/01 08:41:30;;;;;;;1.70;1.40;;;8.50;99.90;;;;;;5075068;28;20447;-57
2021/12/01 08:43:57;;;;;;;1.53;1.43;;;8.60;99.90;;;;;;5074818;28;20547;-54
2021/12/01 08:46:25;;;;;;;1.60;1.37;;;8.60;99.90;;;;;;5075559;28;20547;-55
2021/12/01 08:48:52;;;;;;;1.77;1.20;;;8.60;99.90;;;;;;5075353;28;20449;-54
2021/12/01 08:51:19;;;;;;;1.57;1.47;;;8.70;99.90;;;;;;5074874;28;20472;-54
2021/12/01 08:53:46;;;;;;;1.30;1.20;;;8.60;99.90;;;;;;5074654;28;20448;-56
2021/12/01 08:56:15;;;;;;;1.50;1.40;;;8.60;99.90;;;;;;5074771;28;20486;-56
2021/12/01 08:58:43;;;;;;;1.20;1.10;;;8.60;99.90;;;;;;5074670;28;20455;-56
2021/12/01 09:01:10;;;;;;;1.30;1.20;;;8.60;99.90;;;;;;5074510;28;20475;-56
2021/12/01 09:03:38;;;;;;;3.43;1.53;;;8.70;99.90;;;;;;5075049;28;20499;-56
2021/12/01 09:06:05;;;;;;;1.40;1.30;;;8.70;99.90;;;;;;5074793;28;20498;-56
2021/12/01 09:08:32;;;;;;;1.63;1.20;;;8.80;99.90;;;;;;5074798;28;20448;-56
2021/12/01 09:11:02;;;;;;;12.53;2.37;;;9.00;99.90;;;;;;5074860;28;20476;-56
2021/12/01 09:13:32;;;;;;;1.50;1.30;;;;;;;;;;5074552;28;20453;-56
2021/12/01 09:15:59;;;;;;;1.50;1.40;;;9.40;99.90;;;;;;5074903;28;20483;-56
2021/12/01 09:18:29;;;;;;;1.33;1.10;;;9.40;99.90;;;;;;5074820;28;20448;-56
2021/12/01 09:20:57;;;;;;;1.20;1.10;;;9.60;99.90;;;;;;5074657;28;20552;-56
2021/12/01 09:23:24;;;;;;;1.30;1.20;;;9.70;99.90;;;;;;5074332;28;20536;-56
2021/12/01 09:25:52;;;;;;;1.67;1.50;;;9.70;99.90;;;;;;5074383;28;20451;-56
2021/12/01 09:28:22;;;;;;;1.30;1.00;;;9.80;99.90;;;;;;5074368;28;20523;-56
2021/12/01 09:30:52;;;;;;;1.67;1.57;;;9.80;99.90;;;;;;5074274;28;20966;-56
2021/12/01 09:33:20;;;;;;;1.20;1.10;;;9.80;99.90;;;;;;5074294;28;20531;-56
2021/12/01 09:35:47;;;;;;;1.50;1.30;;;9.60;99.90;;;;;;5074401;28;20506;-56
2021/12/01 09:38:16;;;;;;;1.63;1.20;;;9.50;99.90;;;;;;5074017;28;20488;-56
2021/12/01 09:40:46;;;;;;;2.47;2.27;;;9.50;99.90;;;;;;5074150;28;20541;-56
2021/12/01 09:43:14;;;;;;;1.63;1.30;;;9.60;99.90;;;;;;5074325;28;20480;-56
2021/12/01 09:45:42;;;;;;;1.23;1.13;;;9.50;99.90;;;;;;5073867;28;20547;-56
2021/12/01 09:48:10;;;;;;;1.60;1.20;;;9.60;99.90;;;;;;5074321;28;20480;-55
2021/12/01 09:50:38;;;;;;;1.40;1.20;;;9.60;99.90;;;;;;5073971;28;20552;-56
2021/12/01 09:53:06;;;;;;;2.13;1.10;;;9.60;99.90;;;;;;5073826;28;20535;-56
2021/12/01 09:55:33;;;;;;;1.10;1.00;;;9.60;99.90;;;;;;5074083;28;20578;-56
2021/12/01 09:58:05;;;;;;;1.40;1.30;;;9.60;99.90;;;;;;5073644;28;20455;-56
2021/12/01 10:00:33;;;;;;;2.10;1.20;;;9.60;99.90;;;;;;5073997;28;20464;-56
2021/12/01 10:03:01;;;;;;;1.17;1.07;;;9.50;99.90;;;;;;5073909;28;20535;-56
2021/12/01 10:06:03;;;;;;;1.20;1.10;;;9.60;99.90;;;;;;5074347;28;20444;-56
2021/12/01 10:08:35;;;;;;;1.10;1.00;;;9.60;99.90;;;;;;5072438;28;20458;-57
2021/12/01 10:11:06;;;;;;;1.20;1.10;;;9.70;99.90;;;;;;5073418;28;20461;-54
2021/12/01 10:13:37;;;;;;;1.07;0.97;;;9.80;99.90;;;;;;5073078;28;20444;-55
2021/12/01 10:16:06;;;;;;;1.10;1.00;;;9.70;99.90;;;;;;5073932;28;20553;-57
2021/12/01 10:18:38;;;;;;;1.33;1.00;;;9.80;99.90;;;;;;5073553;28;20535;-58
2021/12/01 10:21:08;;;;;;;1.20;1.10;;;9.90;99.90;;;;;;5074352;28;20491;-56
2021/12/01 10:23:38;;;;;;;1.33;1.20;;;9.80;99.90;;;;;;5073183;28;20896;-56
2021/12/01 10:26:15;;;;;;;1.30;1.20;;;9.80;99.90;;;;;;5073131;28;20527;-55
2021/12/01 10:28:44;;;;;;;1.30;1.20;;;9.80;99.90;;;;;;5073167;28;20435;-57
2021/12/01 10:31:13;;;;;;;1.10;1.00;;;10.00;99.90;;;;;;5073283;28;20558;-54
2021/12/01 10:33:40;;;;;;;1.20;1.00;;;10.10;99.90;;;;;;5073837;28;20539;-55
2021/12/01 10:36:10;;;;;;;1.30;1.20;;;10.20;99.90;;;;;;5073034;28;20845;-55
2021/12/01 10:38:40;;;;;;;1.30;1.10;;;10.20;99.90;;;;;;5073288;28;20443;-55
2021/12/01 10:41:10;;;;;;;1.30;1.20;;;10.40;99.90;;;;;;5073377;28;20496;-55
2021/12/01 10:43:44;;;;;;;1.73;1.50;;;10.40;99.90;;;;;;5072985;28;20445;-55
2021/12/01 10:46:13;;;;;;;1.40;1.30;;;10.40;99.90;;;;;;5073494;28;20458;-55
2021/12/01 10:48:42;;;;;;;2.40;1.40;;;10.50;99.90;;;;;;5073572;28;20431;-55
2021/12/01 10:51:14;;;;;;;2.97;1.20;;;10.60;99.90;;;;;;5072925;28;20471;-55
2021/12/01 10:53:43;;;;;;;1.73;1.33;;;10.60;99.90;;;;;;5073288;28;20921;-55
2021/12/01 10:56:11;;;;;;;1.20;1.10;;;10.60;99.90;;;;;;5072870;28;20480;-55
2021/12/01 10:58:40;;;;;;;1.73;1.30;;;10.50;99.90;;;;;;5073358;28;20441;-55
2021/12/01 11:01:19;;;;;;;1.10;1.00;;;10.40;99.90;;;;;;5073138;28;20470;-55
2021/12/01 11:03:47;;;;;;;1.10;1.00;;;10.40;99.90;;;;;;5073220;28;20545;-55
2021/12/01 11:06:19;;;;;;;1.30;1.20;;;10.50;99.90;;;;;;5073212;28;20448;-55
2021/12/01 11:08:55;;;;;;;1.30;1.20;;;10.60;99.90;;;;;;5072876;28;20447;-55
2021/12/01 11:11:23;;;;;;;1.30;1.20;;;10.60;99.90;;;;;;5072628;28;21005;-55
2021/12/01 11:13:51;;;;;;;1.53;1.30;;;10.70;99.90;;;;;;5073038;28;20514;-55
2021/12/01 11:16:19;;;;;;;1.13;1.03;;;10.60;99.90;;;;;;5072369;28;20487;-55
2021/12/01 11:18:48;;;;;;;1.50;1.40;;;10.50;99.90;;;;;;5072615;28;20868;-55
2021/12/01 11:21:18;;;;;;;1.23;1.10;;;10.40;99.90;;;;;;5073222;28;20867;-55
2021/12/01 11:23:49;;;;;;;1.30;1.20;;;10.30;99.90;;;;;;5072997;28;20535;-55
2021/12/01 11:26:19;;;;;;;1.30;1.20;;;10.40;99.90;;;;;;5076142;28;20435;-55
2021/12/01 11:28:48;;;;;;;1.20;1.03;;;10.50;99.90;;;;;;5076867;28;20429;-55
2021/12/01 11:31:19;;;;;;;1.20;1.10;;;10.40;99.90;;;;;;5076768;28;20476;-54
2021/12/01 11:33:46;;;;;;;1.70;1.40;;;10.40;99.90;;;;;;5076676;28;20439;-55
2021/12/01 11:36:16;;;;;;;1.40;1.27;;;10.40;99.90;;;;;;5075903;28;20498;-55
2021/12/01 11:38:44;;;;;;;1.10;1.00;;;10.40;99.90;;;;;;5076147;28;20455;-55
2021/12/01 11:41:12;;;;;;;3.67;1.27;;;10.60;99.90;;;;;;5076476;28;20464;-56
2021/12/01 11:43:40;;;;;;;1.20;1.10;;;10.80;99.90;;;;;;5075984;28;20440;-55
2021/12/01 11:46:08;;;;;;;1.33;1.10;;;11.10;99.90;;;;;;5076402;28;20946;-56
2021/12/01 11:48:39;;;;;;;2.13;2.03;;;11.50;99.90;;;;;;5076091;28;20456;-55
2021/12/01 11:51:16;;;;;;;1.53;1.40;;;11.40;99.90;;;;;;5075877;28;20525;-56
2021/12/01 11:53:46;;;;;;;1.10;1.00;;;11.30;99.90;;;;;;5076335;28;20431;-56
2021/12/01 11:56:18;;;;;;;1.40;1.30;;;11.20;99.90;;;;;;5075725;28;20523;-55
2021/12/01 11:58:52;;;;;;;1.43;1.33;;;11.20;99.90;;;;;;5076481;28;20417;-56
2021/12/01 12:01:53;;;;;;;1.20;1.10;;;11.20;99.90;;;;;;5076066;28;20499;-55
2021/12/01 12:04:29;;;;;;;1.60;1.30;;;11.10;99.90;;;;;;5075701;28;20527;-55
2021/12/01 12:07:05;;;;;;;1.40;1.30;;;11.20;99.90;;;;;;5075777;28;20902;-55
2021/12/01 12:09:33;;;;;;;1.20;1.10;;;11.40;99.90;;;;;;5075701;28;20829;-55
2021/12/01 12:12:21;;;;;;;1.70;1.20;;;11.60;99.90;;;;;;5075508;28;20527;-55
2021/12/01 12:14:54;;;;;;;1.20;1.10;;;11.50;99.90;;;;;;5075624;28;20452;-56
2021/12/01 12:17:32;;;;;;;4.00;1.40;;;11.80;99.90;;;;;;5076558;28;20476;-55
2021/12/01 12:20:04;;;;;;;2.00;1.23;;;11.90;99.90;;;;;;5075560;28;20468;-55
2021/12/01 12:22:53;;;;;;;1.93;1.40;;;11.80;99.90;;;;;;5075179;28;20433;-55
2021/12/01 12:25:44;;;;;;;1.40;1.30;;;11.60;99.90;;;;;;5075081;28;20472;-54
2021/12/01 12:28:29;;;;;;;1.50;1.40;;;11.60;99.90;;;;;;5076082;28;20509;-55
2021/12/01 12:30:58;;;;;;;1.40;1.30;;;11.40;99.90;;;;;;5076017;28;20555;-54
2021/12/01 12:33:27;;;;;;;1.80;1.67;;;11.20;99.90;;;;;;5075072;28;20444;-54
2021/12/01 12:35:57;;;;;;;1.37;1.27;;;11.20;99.90;;;;;;5074743;28;20448;-55
2021/12/01 12:38:25;;;;;;;3.10;1.60;;;10.90;99.90;;;;;;5075674;28;20806;-55
2021/12/01 12:41:06;;;;;;;2.30;1.33;;;10.70;99.90;;;;;;5075007;28;20468;-55
2021/12/01 12:43:36;;;;;;;2.13;1.50;;;10.90;99.90;;;;;;5074876;28;20440;-56
2021/12/01 12:46:06;;;;;;;1.50;1.40;;;11.00;99.90;;;;;;5074963;28;20456;-55
2021/12/01 12:48:37;;;;;;;1.53;1.43;;;10.90;99.90;;;;;;5074914;28;20448;-56
2021/12/01 12:51:08;;;;;;;1.70;1.47;;;10.90;99.90;;;;;;5074988;28;20475;-55
2021/12/01 12:53:36;;;;;;;1.60;1.50;;;10.70;99.90;;;;;;5075436;28;20458;-55
2021/12/01 12:56:25;;;;;;;3.53;1.80;;;10.50;99.90;;;;;;5074984;28;20444;-56
2021/12/01 12:58:53;;;;;;;1.90;1.70;;;10.60;99.90;;;;;;5074970;28;20493;-56
2021/12/01 13:01:27;;;;;;;2.37;1.50;;;10.50;99.90;;;;;;5074949;28;20460;-56
2021/12/01 13:03:55;;;;;;;1.40;1.30;;;10.30;99.90;;;;;;5074923;28;20466;-55
2021/12/01 13:06:28;;;;;;;1.83;1.50;;;10.10;99.90;;;;;;5075051;28;20858;-55
2021/12/01 13:09:14;;;;;;;1.83;1.50;;;10.10;99.90;;;;;;5075055;28;20479;-57
2021/12/01 13:11:41;;;;;;;1.70;1.60;;;10.10;99.90;;;;;;5075078;28;20463;-57